sensor_id;sensor_type;location;lat;lon;timestamp;P1;durP1;ratioP1;P2;durP2;ratioP2
61907;SDS011;47864;52.526;19.672;2023-07-31T00:00:16;5.57;;;4.38;;
61907;SDS011;47864;52.526;19.672;2023-07-31T00:02:18;6.68;;;4.05;;
61907;SDS011;47864;52.526;19.672;2023-07-31T00:04:20;6.28;;;4.32;;
61907;SDS011;47864;52.526;19.672;2023-07-31T00:06:21;9.95;;;4.20;;
61907;SDS011;47864;52.526;19.672;2023-07-31T00:08:22;7.97;;;4.53;;
61907;SDS011;47864;52.526;19.672;2023-07-31T00:10:24;8.60;;;4.50;;
61907;SDS011;47864;52.526;19.672;2023-07-31T00:12:26;12.18;;;4.00;;
61907;SDS011;47864;52.526;19.672;2023-07-31T00:14:27;8.15;;;4.45;;
61907;SDS011;47864;52.526;19.672;2023-07-31T00:16:29;7.47;;;4.40;;
61907;SDS011;47864;52.526;19.672;2023-07-31T00:18:30;7.57;;;4.18;;
61907;SDS011;47864;52.526;19.672;2023-07-31T00:20:32;6.63;;;4.05;;
61907;SDS011;47864;52.526;19.672;2023-07-31T00:22:34;6.03;;;4.07;;
61907;SDS011;47864;52.526;19.672;2023-07-31T00:24:35;8.18;;;4.40;;
61907;SDS011;47864;52.526;19.672;2023-07-31T00:26:36;9.90;;;4.53;;
61907;SDS011;47864;52.526;19.672;2023-07-31T00:28:39;7.78;;;4.38;;
61907;SDS011;47864;52.526;19.672;2023-07-31T00:30:40;7.32;;;4.60;;
61907;SDS011;47864;52.526;19.672;2023-07-31T00:32:42;6.55;;;3.92;;
61907;SDS011;47864;52.526;19.672;2023-07-31T00:34:43;8.30;;;4.15;;
61907;SDS011;47864;52.526;19.672;2023-07-31T00:36:45;11.10;;;4.35;;
61907;SDS011;47864;52.526;19.672;2023-07-31T00:38:46;9.20;;;3.90;;
61907;SDS011;47864;52.526;19.672;2023-07-31T00:40:48;8.00;;;4.55;;
61907;SDS011;47864;52.526;19.672;2023-07-31T00:42:50;7.05;;;4.40;;
61907;SDS011;47864;52.526;19.672;2023-07-31T00:44:51;7.80;;;4.47;;
61907;SDS011;47864;52.526;19.672;2023-07-31T00:46:53;9.65;;;4.55;;
61907;SDS011;47864;52.526;19.672;2023-07-31T00:48:55;7.60;;;5.05;;
61907;SDS011;47864;52.526;19.672;2023-07-31T00:50:57;8.52;;;4.63;;
61907;SDS011;47864;52.526;19.672;2023-07-31T00:52:59;8.18;;;4.88;;
61907;SDS011;47864;52.526;19.672;2023-07-31T00:55:01;8.18;;;4.60;;
61907;SDS011;47864;52.526;19.672;2023-07-31T00:57:03;11.35;;;4.38;;
61907;SDS011;47864;52.526;19.672;2023-07-31T00:59:04;12.48;;;4.88;;
61907;SDS011;47864;52.526;19.672;2023-07-31T01:01:06;12.60;;;5.15;;
61907;SDS011;47864;52.526;19.672;2023-07-31T01:03:07;8.98;;;4.78;;
61907;SDS011;47864;52.526;19.672;2023-07-31T01:05:09;11.50;;;4.95;;
61907;SDS011;47864;52.526;19.672;2023-07-31T01:07:13;9.02;;;4.93;;
61907;SDS011;47864;52.526;19.672;2023-07-31T01:09:39;6.88;;;4.43;;
61907;SDS011;47864;52.526;19.672;2023-07-31T01:11:47;9.18;;;4.78;;
61907;SDS011;47864;52.526;19.672;2023-07-31T01:14:01;10.38;;;4.88;;
61907;SDS011;47864;52.526;19.672;2023-07-31T01:16:03;9.88;;;4.90;;
61907;SDS011;47864;52.526;19.672;2023-07-31T01:18:04;10.40;;;4.47;;
61907;SDS011;47864;52.526;19.672;2023-07-31T01:20:09;6.25;;;4.15;;
61907;SDS011;47864;52.526;19.672;2023-07-31T01:22:22;9.55;;;4.55;;
61907;SDS011;47864;52.526;19.672;2023-07-31T01:24:41;11.13;;;4.65;;
61907;SDS011;47864;52.526;19.672;2023-07-31T01:26:53;7.10;;;4.20;;
61907;SDS011;47864;52.526;19.672;2023-07-31T01:29:03;7.50;;;4.47;;
61907;SDS011;47864;52.526;19.672;2023-07-31T01:31:09;7.07;;;4.18;;
61907;SDS011;47864;52.526;19.672;2023-07-31T01:33:16;9.93;;;4.13;;
61907;SDS011;47864;52.526;19.672;2023-07-31T01:35:18;7.25;;;4.32;;
61907;SDS011;47864;52.526;19.672;2023-07-31T01:37:20;6.85;;;3.95;;
61907;SDS011;47864;52.526;19.672;2023-07-31T01:39:21;7.47;;;3.70;;
61907;SDS011;47864;52.526;19.672;2023-07-31T01:41:23;6.47;;;3.70;;
61907;SDS011;47864;52.526;19.672;2023-07-31T01:43:24;7.28;;;4.35;;
61907;SDS011;47864;52.526;19.672;2023-07-31T01:45:26;9.55;;;4.03;;
61907;SDS011;47864;52.526;19.672;2023-07-31T01:47:27;6.50;;;4.30;;
61907;SDS011;47864;52.526;19.672;2023-07-31T01:49:29;7.30;;;4.13;;
61907;SDS011;47864;52.526;19.672;2023-07-31T01:51:30;8.88;;;3.90;;
61907;SDS011;47864;52.526;19.672;2023-07-31T01:53:32;6.13;;;3.72;;
61907;SDS011;47864;52.526;19.672;2023-07-31T01:55:34;7.95;;;4.10;;
61907;SDS011;47864;52.526;19.672;2023-07-31T01:57:36;6.43;;;4.15;;
61907;SDS011;47864;52.526;19.672;2023-07-31T01:59:38;7.25;;;3.95;;
61907;SDS011;47864;52.526;19.672;2023-07-31T02:01:39;11.35;;;4.38;;
61907;SDS011;47864;52.526;19.672;2023-07-31T02:03:41;9.30;;;4.47;;
61907;SDS011;47864;52.526;19.672;2023-07-31T02:05:46;9.02;;;4.20;;
61907;SDS011;47864;52.526;19.672;2023-07-31T02:07:49;11.43;;;4.70;;
61907;SDS011;47864;52.526;19.672;2023-07-31T02:11:54;6.50;;;4.32;;
61907;SDS011;47864;52.526;19.672;2023-07-31T02:13:55;6.50;;;4.05;;
61907;SDS011;47864;52.526;19.672;2023-07-31T02:15:57;7.75;;;4.35;;
61907;SDS011;47864;52.526;19.672;2023-07-31T02:17:59;7.03;;;4.20;;
61907;SDS011;47864;52.526;19.672;2023-07-31T02:20:00;6.00;;;4.20;;
61907;SDS011;47864;52.526;19.672;2023-07-31T02:22:03;6.45;;;4.20;;
61907;SDS011;47864;52.526;19.672;2023-07-31T02:24:04;6.10;;;3.97;;
61907;SDS011;47864;52.526;19.672;2023-07-31T02:26:06;11.43;;;4.05;;
61907;SDS011;47864;52.526;19.672;2023-07-31T02:28:07;5.35;;;3.88;;
61907;SDS011;47864;52.526;19.672;2023-07-31T02:30:09;6.90;;;3.85;;
61907;SDS011;47864;52.526;19.672;2023-07-31T02:32:11;6.82;;;3.75;;
61907;SDS011;47864;52.526;19.672;2023-07-31T02:34:13;7.35;;;4.13;;
61907;SDS011;47864;52.526;19.672;2023-07-31T02:36:14;8.82;;;3.50;;
61907;SDS011;47864;52.526;19.672;2023-07-31T02:38:16;6.45;;;3.80;;
61907;SDS011;47864;52.526;19.672;2023-07-31T02:40:17;5.45;;;3.35;;
61907;SDS011;47864;52.526;19.672;2023-07-31T02:42:19;8.20;;;3.42;;
61907;SDS011;47864;52.526;19.672;2023-07-31T02:44:20;8.35;;;3.75;;
61907;SDS011;47864;52.526;19.672;2023-07-31T02:46:23;7.20;;;3.80;;
61907;SDS011;47864;52.526;19.672;2023-07-31T02:48:24;6.72;;;3.30;;
61907;SDS011;47864;52.526;19.672;2023-07-31T02:50:26;6.30;;;3.10;;
61907;SDS011;47864;52.526;19.672;2023-07-31T02:52:28;7.32;;;3.55;;
61907;SDS011;47864;52.526;19.672;2023-07-31T02:54:29;5.10;;;2.97;;
61907;SDS011;47864;52.526;19.672;2023-07-31T02:56:31;8.77;;;3.40;;
61907;SDS011;47864;52.526;19.672;2023-07-31T02:58:32;8.27;;;3.08;;
61907;SDS011;47864;52.526;19.672;2023-07-31T03:00:34;5.22;;;3.08;;
61907;SDS011;47864;52.526;19.672;2023-07-31T03:02:36;4.95;;;3.28;;
61907;SDS011;47864;52.526;19.672;2023-07-31T03:04:37;5.07;;;3.03;;
61907;SDS011;47864;52.526;19.672;2023-07-31T03:06:39;5.53;;;3.33;;
61907;SDS011;47864;52.526;19.672;2023-07-31T03:08:41;7.30;;;3.55;;
61907;SDS011;47864;52.526;19.672;2023-07-31T03:10:42;5.70;;;3.08;;
61907;SDS011;47864;52.526;19.672;2023-07-31T03:12:46;6.13;;;3.08;;
61907;SDS011;47864;52.526;19.672;2023-07-31T03:14:48;6.63;;;3.17;;
61907;SDS011;47864;52.526;19.672;2023-07-31T03:16:50;5.28;;;3.20;;
61907;SDS011;47864;52.526;19.672;2023-07-31T03:18:51;6.50;;;3.17;;
61907;SDS011;47864;52.526;19.672;2023-07-31T03:20:53;5.55;;;3.00;;
61907;SDS011;47864;52.526;19.672;2023-07-31T03:22:55;6.15;;;3.42;;
61907;SDS011;47864;52.526;19.672;2023-07-31T03:24:56;6.82;;;2.70;;
61907;SDS011;47864;52.526;19.672;2023-07-31T03:26:58;10.18;;;3.17;;
61907;SDS011;47864;52.526;19.672;2023-07-31T03:28:59;8.80;;;3.40;;
61907;SDS011;47864;52.526;19.672;2023-07-31T03:31:01;4.80;;;2.75;;
61907;SDS011;47864;52.526;19.672;2023-07-31T03:33:03;5.68;;;2.83;;
61907;SDS011;47864;52.526;19.672;2023-07-31T03:35:04;4.70;;;2.70;;
61907;SDS011;47864;52.526;19.672;2023-07-31T03:37:06;6.00;;;3.00;;
61907;SDS011;47864;52.526;19.672;2023-07-31T03:39:08;9.32;;;3.30;;
61907;SDS011;47864;52.526;19.672;2023-07-31T03:41:09;6.47;;;2.63;;
61907;SDS011;47864;52.526;19.672;2023-07-31T03:43:11;7.38;;;3.00;;
61907;SDS011;47864;52.526;19.672;2023-07-31T03:45:13;4.82;;;2.83;;
61907;SDS011;47864;52.526;19.672;2023-07-31T03:47:15;6.50;;;3.00;;
61907;SDS011;47864;52.526;19.672;2023-07-31T03:49:16;6.82;;;2.80;;
61907;SDS011;47864;52.526;19.672;2023-07-31T03:51:18;6.05;;;2.65;;
61907;SDS011;47864;52.526;19.672;2023-07-31T03:53:19;4.65;;;3.28;;
61907;SDS011;47864;52.526;19.672;2023-07-31T03:55:21;7.55;;;2.70;;
61907;SDS011;47864;52.526;19.672;2023-07-31T03:57:22;6.60;;;2.80;;
61907;SDS011;47864;52.526;19.672;2023-07-31T03:59:24;8.18;;;3.13;;
61907;SDS011;47864;52.526;19.672;2023-07-31T04:01:25;6.15;;;2.80;;
61907;SDS011;47864;52.526;19.672;2023-07-31T04:03:27;7.00;;;2.75;;
61907;SDS011;47864;52.526;19.672;2023-07-31T04:05:29;7.32;;;2.97;;
61907;SDS011;47864;52.526;19.672;2023-07-31T04:07:32;6.50;;;3.05;;
61907;SDS011;47864;52.526;19.672;2023-07-31T04:09:34;7.63;;;2.95;;
61907;SDS011;47864;52.526;19.672;2023-07-31T04:11:36;6.75;;;2.83;;
61907;SDS011;47864;52.526;19.672;2023-07-31T04:13:37;4.70;;;2.85;;
61907;SDS011;47864;52.526;19.672;2023-07-31T04:15:39;5.50;;;2.90;;
61907;SDS011;47864;52.526;19.672;2023-07-31T04:17:40;5.95;;;2.65;;
61907;SDS011;47864;52.526;19.672;2023-07-31T04:19:42;8.15;;;3.75;;
61907;SDS011;47864;52.526;19.672;2023-07-31T04:21:44;6.80;;;3.10;;
61907;SDS011;47864;52.526;19.672;2023-07-31T04:23:45;5.57;;;2.58;;
61907;SDS011;47864;52.526;19.672;2023-07-31T04:25:47;4.68;;;2.90;;
61907;SDS011;47864;52.526;19.672;2023-07-31T04:27:48;6.00;;;2.63;;
61907;SDS011;47864;52.526;19.672;2023-07-31T04:29:50;6.32;;;3.00;;
61907;SDS011;47864;52.526;19.672;2023-07-31T04:31:51;7.10;;;2.80;;
61907;SDS011;47864;52.526;19.672;2023-07-31T04:33:53;7.40;;;2.88;;
61907;SDS011;47864;52.526;19.672;2023-07-31T04:35:54;4.35;;;2.83;;
61907;SDS011;47864;52.526;19.672;2023-07-31T04:37:56;5.47;;;2.70;;
61907;SDS011;47864;52.526;19.672;2023-07-31T04:39:58;4.15;;;2.58;;
61907;SDS011;47864;52.526;19.672;2023-07-31T04:41:59;5.43;;;2.60;;
61907;SDS011;47864;52.526;19.672;2023-07-31T04:44:01;9.23;;;3.40;;
61907;SDS011;47864;52.526;19.672;2023-07-31T04:46:02;7.25;;;2.80;;
61907;SDS011;47864;52.526;19.672;2023-07-31T04:48:04;7.78;;;2.97;;
61907;SDS011;47864;52.526;19.672;2023-07-31T04:50:06;4.78;;;3.03;;
61907;SDS011;47864;52.526;19.672;2023-07-31T04:52:08;6.25;;;2.47;;
61907;SDS011;47864;52.526;19.672;2023-07-31T04:54:09;7.63;;;2.92;;
61907;SDS011;47864;52.526;19.672;2023-07-31T04:56:11;8.65;;;3.10;;
61907;SDS011;47864;52.526;19.672;2023-07-31T04:58:12;8.20;;;3.05;;
61907;SDS011;47864;52.526;19.672;2023-07-31T05:00:14;4.68;;;2.58;;
61907;SDS011;47864;52.526;19.672;2023-07-31T05:02:16;6.75;;;2.92;;
61907;SDS011;47864;52.526;19.672;2023-07-31T05:04:17;6.82;;;2.70;;
61907;SDS011;47864;52.526;19.672;2023-07-31T05:06:19;5.50;;;2.88;;
61907;SDS011;47864;52.526;19.672;2023-07-31T05:08:21;6.35;;;2.95;;
61907;SDS011;47864;52.526;19.672;2023-07-31T05:10:23;6.45;;;2.70;;
61907;SDS011;47864;52.526;19.672;2023-07-31T05:12:24;7.22;;;2.75;;
61907;SDS011;47864;52.526;19.672;2023-07-31T05:14:26;6.50;;;2.70;;
61907;SDS011;47864;52.526;19.672;2023-07-31T05:16:28;7.18;;;2.90;;
61907;SDS011;47864;52.526;19.672;2023-07-31T05:18:31;7.85;;;2.80;;
61907;SDS011;47864;52.526;19.672;2023-07-31T05:20:32;7.38;;;3.00;;
61907;SDS011;47864;52.526;19.672;2023-07-31T05:22:34;9.10;;;2.65;;
61907;SDS011;47864;52.526;19.672;2023-07-31T05:24:35;9.23;;;2.78;;
61907;SDS011;47864;52.526;19.672;2023-07-31T05:26:37;6.20;;;2.85;;
61907;SDS011;47864;52.526;19.672;2023-07-31T05:28:40;8.05;;;2.88;;
61907;SDS011;47864;52.526;19.672;2023-07-31T05:30:41;6.75;;;2.80;;
61907;SDS011;47864;52.526;19.672;2023-07-31T05:32:43;7.47;;;2.67;;
61907;SDS011;47864;52.526;19.672;2023-07-31T05:34:45;5.35;;;2.38;;
61907;SDS011;47864;52.526;19.672;2023-07-31T05:36:47;7.35;;;2.90;;
61907;SDS011;47864;52.526;19.672;2023-07-31T05:38:48;7.68;;;2.75;;
61907;SDS011;47864;52.526;19.672;2023-07-31T05:40:50;5.75;;;2.60;;
61907;SDS011;47864;52.526;19.672;2023-07-31T05:42:52;7.55;;;2.83;;
61907;SDS011;47864;52.526;19.672;2023-07-31T05:44:53;5.28;;;2.50;;
61907;SDS011;47864;52.526;19.672;2023-07-31T05:46:55;6.45;;;2.63;;
61907;SDS011;47864;52.526;19.672;2023-07-31T05:48:56;7.95;;;2.85;;
61907;SDS011;47864;52.526;19.672;2023-07-31T05:50:58;6.53;;;2.55;;
61907;SDS011;47864;52.526;19.672;2023-07-31T05:53:00;6.03;;;2.90;;
61907;SDS011;47864;52.526;19.672;2023-07-31T05:55:01;5.90;;;2.80;;
61907;SDS011;47864;52.526;19.672;2023-07-31T05:57:03;6.50;;;2.80;;
61907;SDS011;47864;52.526;19.672;2023-07-31T05:59:05;5.95;;;2.92;;
61907;SDS011;47864;52.526;19.672;2023-07-31T06:01:06;6.65;;;2.58;;
61907;SDS011;47864;52.526;19.672;2023-07-31T06:03:08;7.57;;;3.03;;
61907;SDS011;47864;52.526;19.672;2023-07-31T06:05:10;5.18;;;2.60;;
61907;SDS011;47864;52.526;19.672;2023-07-31T06:07:12;5.78;;;2.83;;
61907;SDS011;47864;52.526;19.672;2023-07-31T06:09:13;6.88;;;3.10;;
61907;SDS011;47864;52.526;19.672;2023-07-31T06:11:15;6.82;;;2.67;;
61907;SDS011;47864;52.526;19.672;2023-07-31T06:13:17;6.55;;;3.25;;
61907;SDS011;47864;52.526;19.672;2023-07-31T06:15:18;7.38;;;2.83;;
61907;SDS011;47864;52.526;19.672;2023-07-31T06:17:21;5.15;;;2.70;;
61907;SDS011;47864;52.526;19.672;2023-07-31T06:19:22;9.82;;;2.67;;
61907;SDS011;47864;52.526;19.672;2023-07-31T06:21:24;5.35;;;2.55;;
61907;SDS011;47864;52.526;19.672;2023-07-31T06:23:26;5.93;;;2.70;;
61907;SDS011;47864;52.526;19.672;2023-07-31T06:25:27;5.75;;;2.67;;
61907;SDS011;47864;52.526;19.672;2023-07-31T06:27:29;5.40;;;2.75;;
61907;SDS011;47864;52.526;19.672;2023-07-31T06:29:30;5.60;;;3.00;;
61907;SDS011;47864;52.526;19.672;2023-07-31T06:31:32;5.18;;;2.70;;
61907;SDS011;47864;52.526;19.672;2023-07-31T06:33:34;9.93;;;2.80;;
61907;SDS011;47864;52.526;19.672;2023-07-31T06:35:36;6.50;;;2.88;;
61907;SDS011;47864;52.526;19.672;2023-07-31T06:37:37;8.23;;;2.97;;
61907;SDS011;47864;52.526;19.672;2023-07-31T06:39:39;5.35;;;2.60;;
61907;SDS011;47864;52.526;19.672;2023-07-31T06:41:41;5.07;;;2.42;;
61907;SDS011;47864;52.526;19.672;2023-07-31T06:43:43;6.43;;;2.60;;
61907;SDS011;47864;52.526;19.672;2023-07-31T06:45:45;5.70;;;2.90;;
61907;SDS011;47864;52.526;19.672;2023-07-31T06:47:46;10.93;;;3.33;;
61907;SDS011;47864;52.526;19.672;2023-07-31T06:49:48;5.47;;;2.47;;
61907;SDS011;47864;52.526;19.672;2023-07-31T06:51:49;8.40;;;3.10;;
61907;SDS011;47864;52.526;19.672;2023-07-31T06:53:51;6.35;;;2.53;;
61907;SDS011;47864;52.526;19.672;2023-07-31T06:55:53;12.63;;;2.97;;
61907;SDS011;47864;52.526;19.672;2023-07-31T06:57:55;6.47;;;2.50;;
61907;SDS011;47864;52.526;19.672;2023-07-31T06:59:56;7.40;;;2.42;;
61907;SDS011;47864;52.526;19.672;2023-07-31T07:01:58;4.00;;;2.47;;
61907;SDS011;47864;52.526;19.672;2023-07-31T07:03:59;8.25;;;2.50;;
61907;SDS011;47864;52.526;19.672;2023-07-31T07:06:01;5.47;;;2.47;;
61907;SDS011;47864;52.526;19.672;2023-07-31T07:08:03;7.60;;;2.30;;
61907;SDS011;47864;52.526;19.672;2023-07-31T07:10:05;7.45;;;2.75;;
61907;SDS011;47864;52.526;19.672;2023-07-31T07:12:07;5.13;;;2.47;;
61907;SDS011;47864;52.526;19.672;2023-07-31T07:14:09;8.55;;;2.30;;
61907;SDS011;47864;52.526;19.672;2023-07-31T07:16:10;6.70;;;2.15;;
61907;SDS011;47864;52.526;19.672;2023-07-31T07:18:12;6.20;;;2.33;;
61907;SDS011;47864;52.526;19.672;2023-07-31T07:20:13;4.60;;;1.80;;
61907;SDS011;47864;52.526;19.672;2023-07-31T07:22:15;5.38;;;2.10;;
61907;SDS011;47864;52.526;19.672;2023-07-31T07:24:16;7.22;;;2.58;;
61907;SDS011;47864;52.526;19.672;2023-07-31T07:26:19;4.95;;;2.58;;
61907;SDS011;47864;52.526;19.672;2023-07-31T07:28:21;5.65;;;2.10;;
61907;SDS011;47864;52.526;19.672;2023-07-31T07:30:22;6.68;;;2.10;;
61907;SDS011;47864;52.526;19.672;2023-07-31T07:32:25;9.38;;;2.70;;
61907;SDS011;47864;52.526;19.672;2023-07-31T07:34:27;5.50;;;2.20;;
61907;SDS011;47864;52.526;19.672;2023-07-31T07:36:29;5.13;;;2.10;;
61907;SDS011;47864;52.526;19.672;2023-07-31T07:38:31;10.18;;;2.10;;
61907;SDS011;47864;52.526;19.672;2023-07-31T07:40:32;5.57;;;1.92;;
61907;SDS011;47864;52.526;19.672;2023-07-31T07:42:34;4.32;;;1.67;;
61907;SDS011;47864;52.526;19.672;2023-07-31T07:44:36;5.20;;;1.90;;
61907;SDS011;47864;52.526;19.672;2023-07-31T07:46:37;8.73;;;1.70;;
61907;SDS011;47864;52.526;19.672;2023-07-31T07:48:39;4.88;;;1.80;;
61907;SDS011;47864;52.526;19.672;2023-07-31T07:50:41;5.93;;;1.83;;
61907;SDS011;47864;52.526;19.672;2023-07-31T07:52:42;4.10;;;1.38;;
61907;SDS011;47864;52.526;19.672;2023-07-31T07:54:44;6.25;;;1.77;;
61907;SDS011;47864;52.526;19.672;2023-07-31T07:56:46;6.05;;;1.65;;
61907;SDS011;47864;52.526;19.672;2023-07-31T07:58:50;7.53;;;2.03;;
61907;SDS011;47864;52.526;19.672;2023-07-31T08:00:52;9.25;;;2.30;;
61907;SDS011;47864;52.526;19.672;2023-07-31T08:02:54;8.50;;;2.03;;
61907;SDS011;47864;52.526;19.672;2023-07-31T08:04:55;6.50;;;1.60;;
61907;SDS011;47864;52.526;19.672;2023-07-31T08:06:57;5.40;;;1.50;;
61907;SDS011;47864;52.526;19.672;2023-07-31T08:08:59;4.28;;;1.50;;
61907;SDS011;47864;52.526;19.672;2023-07-31T08:11:01;5.25;;;1.60;;
61907;SDS011;47864;52.526;19.672;2023-07-31T08:13:03;5.60;;;1.77;;
61907;SDS011;47864;52.526;19.672;2023-07-31T08:15:04;6.68;;;1.63;;
61907;SDS011;47864;52.526;19.672;2023-07-31T08:17:07;7.47;;;1.20;;
61907;SDS011;47864;52.526;19.672;2023-07-31T08:19:08;6.72;;;1.48;;
61907;SDS011;47864;52.526;19.672;2023-07-31T08:21:10;9.88;;;1.63;;
61907;SDS011;47864;52.526;19.672;2023-07-31T08:23:12;3.97;;;1.60;;
61907;SDS011;47864;52.526;19.672;2023-07-31T08:25:13;3.58;;;1.50;;
61907;SDS011;47864;52.526;19.672;2023-07-31T08:27:15;5.45;;;1.63;;
61907;SDS011;47864;52.526;19.672;2023-07-31T08:29:16;3.70;;;1.20;;
61907;SDS011;47864;52.526;19.672;2023-07-31T08:31:18;3.78;;;1.50;;
61907;SDS011;47864;52.526;19.672;2023-07-31T08:33:20;3.47;;;1.55;;
61907;SDS011;47864;52.526;19.672;2023-07-31T08:35:22;10.15;;;1.40;;
61907;SDS011;47864;52.526;19.672;2023-07-31T08:37:25;5.65;;;1.50;;
61907;SDS011;47864;52.526;19.672;2023-07-31T08:39:26;3.50;;;1.20;;
61907;SDS011;47864;52.526;19.672;2023-07-31T08:41:28;6.53;;;1.40;;
61907;SDS011;47864;52.526;19.672;2023-07-31T08:43:30;3.58;;;1.67;;
61907;SDS011;47864;52.526;19.672;2023-07-31T08:45:32;6.50;;;1.65;;
61907;SDS011;47864;52.526;19.672;2023-07-31T08:47:33;4.45;;;1.35;;
61907;SDS011;47864;52.526;19.672;2023-07-31T08:49:36;4.80;;;1.65;;
61907;SDS011;47864;52.526;19.672;2023-07-31T08:51:39;3.60;;;1.15;;
61907;SDS011;47864;52.526;19.672;2023-07-31T08:53:42;5.60;;;1.40;;
61907;SDS011;47864;52.526;19.672;2023-07-31T08:55:44;6.93;;;1.35;;
61907;SDS011;47864;52.526;19.672;2023-07-31T08:57:46;6.55;;;1.45;;
61907;SDS011;47864;52.526;19.672;2023-07-31T08:59:48;6.05;;;1.13;;
61907;SDS011;47864;52.526;19.672;2023-07-31T09:01:52;4.93;;;1.40;;
61907;SDS011;47864;52.526;19.672;2023-07-31T09:03:56;5.65;;;1.40;;
61907;SDS011;47864;52.526;19.672;2023-07-31T09:06:00;5.75;;;1.30;;
61907;SDS011;47864;52.526;19.672;2023-07-31T09:08:04;6.70;;;1.27;;
61907;SDS011;47864;52.526;19.672;2023-07-31T09:10:06;9.20;;;1.30;;
61907;SDS011;47864;52.526;19.672;2023-07-31T09:12:08;7.85;;;1.60;;
61907;SDS011;47864;52.526;19.672;2023-07-31T09:14:09;6.10;;;1.30;;
61907;SDS011;47864;52.526;19.672;2023-07-31T09:16:11;6.85;;;1.40;;
61907;SDS011;47864;52.526;19.672;2023-07-31T09:18:13;3.55;;;1.10;;
61907;SDS011;47864;52.526;19.672;2023-07-31T09:20:18;4.68;;;1.40;;
61907;SDS011;47864;52.526;19.672;2023-07-31T09:22:34;4.85;;;1.10;;
61907;SDS011;47864;52.526;19.672;2023-07-31T09:24:37;4.60;;;1.10;;
61907;SDS011;47864;52.526;19.672;2023-07-31T09:26:38;4.72;;;1.20;;
61907;SDS011;47864;52.526;19.672;2023-07-31T09:28:41;6.07;;;1.45;;
61907;SDS011;47864;52.526;19.672;2023-07-31T09:32:50;4.95;;;1.40;;
61907;SDS011;47864;52.526;19.672;2023-07-31T09:34:52;4.47;;;1.15;;
61907;SDS011;47864;52.526;19.672;2023-07-31T09:36:53;5.20;;;1.10;;
61907;SDS011;47864;52.526;19.672;2023-07-31T09:38:55;4.55;;;0.90;;
61907;SDS011;47864;52.526;19.672;2023-07-31T09:40:57;3.25;;;1.17;;
61907;SDS011;47864;52.526;19.672;2023-07-31T09:43:03;4.53;;;1.10;;
61907;SDS011;47864;52.526;19.672;2023-07-31T09:45:07;6.55;;;1.40;;
61907;SDS011;47864;52.526;19.672;2023-07-31T09:47:24;2.42;;;0.90;;
61907;SDS011;47864;52.526;19.672;2023-07-31T09:49:27;6.22;;;1.30;;
61907;SDS011;47864;52.526;19.672;2023-07-31T09:51:30;3.92;;;1.00;;
61907;SDS011;47864;52.526;19.672;2023-07-31T09:53:31;4.18;;;1.20;;
61907;SDS011;47864;52.526;19.672;2023-07-31T09:55:33;2.95;;;0.93;;
61907;SDS011;47864;52.526;19.672;2023-07-31T09:57:39;5.75;;;1.30;;
61907;SDS011;47864;52.526;19.672;2023-07-31T09:59:42;4.63;;;1.20;;
61907;SDS011;47864;52.526;19.672;2023-07-31T10:01:44;4.55;;;1.00;;
61907;SDS011;47864;52.526;19.672;2023-07-31T10:03:47;5.28;;;1.30;;
61907;SDS011;47864;52.526;19.672;2023-07-31T10:05:50;3.78;;;1.30;;
61907;SDS011;47864;52.526;19.672;2023-07-31T10:07:53;6.68;;;1.08;;
61907;SDS011;47864;52.526;19.672;2023-07-31T10:09:59;5.45;;;1.17;;
61907;SDS011;47864;52.526;19.672;2023-07-31T10:12:05;3.28;;;1.13;;
61907;SDS011;47864;52.526;19.672;2023-07-31T10:14:12;3.72;;;1.20;;
61907;SDS011;47864;52.526;19.672;2023-07-31T10:16:14;4.78;;;1.88;;
61907;SDS011;47864;52.526;19.672;2023-07-31T10:18:17;4.10;;;1.20;;
61907;SDS011;47864;52.526;19.672;2023-07-31T10:20:19;5.00;;;1.30;;
61907;SDS011;47864;52.526;19.672;2023-07-31T10:22:22;7.53;;;1.50;;
61907;SDS011;47864;52.526;19.672;2023-07-31T10:24:24;4.13;;;1.33;;
61907;SDS011;47864;52.526;19.672;2023-07-31T10:26:26;4.78;;;1.35;;
61907;SDS011;47864;52.526;19.672;2023-07-31T10:28:28;4.30;;;1.20;;
61907;SDS011;47864;52.526;19.672;2023-07-31T10:30:31;4.95;;;1.20;;
61907;SDS011;47864;52.526;19.672;2023-07-31T10:32:34;6.65;;;1.50;;
61907;SDS011;47864;52.526;19.672;2023-07-31T10:34:38;5.82;;;1.50;;
61907;SDS011;47864;52.526;19.672;2023-07-31T10:36:41;5.82;;;1.33;;
61907;SDS011;47864;52.526;19.672;2023-07-31T10:38:42;3.88;;;1.20;;
61907;SDS011;47864;52.526;19.672;2023-07-31T10:40:44;4.30;;;1.30;;
61907;SDS011;47864;52.526;19.672;2023-07-31T10:42:47;4.95;;;1.23;;
61907;SDS011;47864;52.526;19.672;2023-07-31T10:44:49;5.15;;;1.10;;
61907;SDS011;47864;52.526;19.672;2023-07-31T10:46:54;3.97;;;1.20;;
61907;SDS011;47864;52.526;19.672;2023-07-31T10:49:00;3.53;;;1.30;;
61907;SDS011;47864;52.526;19.672;2023-07-31T10:51:06;4.88;;;1.23;;
61907;SDS011;47864;52.526;19.672;2023-07-31T10:53:09;4.47;;;1.42;;
61907;SDS011;47864;52.526;19.672;2023-07-31T10:55:28;4.63;;;1.35;;
61907;SDS011;47864;52.526;19.672;2023-07-31T10:57:44;6.03;;;1.13;;
61907;SDS011;47864;52.526;19.672;2023-07-31T10:59:48;4.72;;;1.00;;
61907;SDS011;47864;52.526;19.672;2023-07-31T11:01:54;5.07;;;1.40;;
61907;SDS011;47864;52.526;19.672;2023-07-31T11:03:57;4.97;;;1.30;;
61907;SDS011;47864;52.526;19.672;2023-07-31T11:06:00;6.32;;;1.15;;
61907;SDS011;47864;52.526;19.672;2023-07-31T11:08:09;6.13;;;1.60;;
61907;SDS011;47864;52.526;19.672;2023-07-31T11:10:16;6.75;;;1.55;;
61907;SDS011;47864;52.526;19.672;2023-07-31T11:12:20;5.97;;;1.35;;
61907;SDS011;47864;52.526;19.672;2023-07-31T11:14:22;2.97;;;1.00;;
61907;SDS011;47864;52.526;19.672;2023-07-31T11:16:24;9.85;;;1.60;;
61907;SDS011;47864;52.526;19.672;2023-07-31T11:18:27;5.80;;;1.27;;
61907;SDS011;47864;52.526;19.672;2023-07-31T11:20:32;10.07;;;1.40;;
61907;SDS011;47864;52.526;19.672;2023-07-31T11:22:34;3.70;;;1.30;;
61907;SDS011;47864;52.526;19.672;2023-07-31T11:24:36;6.18;;;1.60;;
61907;SDS011;47864;52.526;19.672;2023-07-31T11:26:38;5.80;;;1.40;;
61907;SDS011;47864;52.526;19.672;2023-07-31T11:28:40;5.00;;;1.33;;
61907;SDS011;47864;52.526;19.672;2023-07-31T11:30:42;4.40;;;1.30;;
61907;SDS011;47864;52.526;19.672;2023-07-31T11:32:45;8.68;;;1.52;;
61907;SDS011;47864;52.526;19.672;2023-07-31T11:34:53;8.13;;;1.25;;
61907;SDS011;47864;52.526;19.672;2023-07-31T11:36:55;6.70;;;1.13;;
61907;SDS011;47864;52.526;19.672;2023-07-31T11:39:04;4.75;;;1.10;;
61907;SDS011;47864;52.526;19.672;2023-07-31T11:41:09;4.55;;;1.10;;
61907;SDS011;47864;52.526;19.672;2023-07-31T11:43:11;6.35;;;1.60;;
61907;SDS011;47864;52.526;19.672;2023-07-31T11:45:12;4.93;;;1.38;;
61907;SDS011;47864;52.526;19.672;2023-07-31T11:47:14;6.63;;;1.40;;
61907;SDS011;47864;52.526;19.672;2023-07-31T11:49:17;8.15;;;1.40;;
61907;SDS011;47864;52.526;19.672;2023-07-31T11:51:18;8.65;;;1.33;;
61907;SDS011;47864;52.526;19.672;2023-07-31T11:55:28;10.07;;;1.67;;
61907;SDS011;47864;52.526;19.672;2023-07-31T11:57:30;4.88;;;1.40;;
61907;SDS011;47864;52.526;19.672;2023-07-31T11:59:31;7.15;;;1.70;;
61907;SDS011;47864;52.526;19.672;2023-07-31T12:01:33;7.82;;;1.63;;
61907;SDS011;47864;52.526;19.672;2023-07-31T12:03:35;5.78;;;1.83;;
61907;SDS011;47864;52.526;19.672;2023-07-31T12:05:37;5.22;;;1.90;;
61907;SDS011;47864;52.526;19.672;2023-07-31T12:07:43;5.72;;;1.35;;
61907;SDS011;47864;52.526;19.672;2023-07-31T12:09:52;8.48;;;1.30;;
61907;SDS011;47864;52.526;19.672;2023-07-31T12:11:57;5.45;;;1.20;;